Portada
METAR-TAF:

METAR-TAF

Aeropuertos :

Aeropuerto Internacional de La Chinita

Maracaibo, Venezuela

latitud: 10-34N, longitud: 071-44W, altitud: 66 m

METAR: falta

Hora: 01:38 (05:38 UTC)

Pronóstico

El informe se hizo hace 13 horas y 38 minutos, a las 16:00 UTC
Pronóstico válido del 23 a las 18 UTC al 24 a las 18 UTC
Viento 10 kt del sur
Visibilidad 10 km o más
Nubes dispersas a una altura de 1600 ft
Evolucionando progresivamente
del 23 a las 18 UTC al 23 a las 22 UTC
Viento 5 kt del este
Nubes dispersas a una altura de 1600 ft

TAF: SVMC 231600Z 2318/2418 18010KT 9999 SCT016 TX35/19Z TN24/08Z BECMG 2318/2322 09005KT SCT016

Observaciones y pronósticos meteorológicos de más de 4000 aeropuertos (mensajes METAR y TAF).

Los puntos amarillos y rojos representan las estaciones disponibles.

Ponga el ratón en el punto deseado para ver el nombre de la estación.

Haga clic para ver las observaciones y los pronósticos meteorológicos.

Para cambiar el mapa : haga clic en los botones verdes con una cruz de color negro para hacer un zoom, en el botón verde con un guión para alejar o en las flechas verdes para mapas adyacentes.


METAR-TAF: